地図

経路データ

SID SEASON NUMBER BASIN SUBBASIN NAME ISO_TIME NATURE LAT LON WMO_WIND WMO_PRES WMO_AGENCY TRACK_TYPE DIST2LAND LANDFALL IFLAG USA_AGENCY USA_ATCF_ID USA_LAT USA_LON USA_RECORD USA_STATUS USA_WIND USA_PRES USA_SSHS USA_R34_NE USA_R34_SE USA_R34_SW USA_R34_NW USA_R50_NE USA_R50_SE USA_R50_SW USA_R50_NW USA_R64_NE USA_R64_SE USA_R64_SW USA_R64_NW USA_POCI USA_ROCI USA_RMW USA_EYE TOKYO_LAT TOKYO_LON TOKYO_GRADE TOKYO_WIND TOKYO_PRES TOKYO_R50_DIR TOKYO_R50_LONG TOKYO_R50_SHORT TOKYO_R30_DIR TOKYO_R30_LONG TOKYO_R30_SHORT TOKYO_LAND CMA_LAT CMA_LON CMA_CAT CMA_WIND CMA_PRES HKO_LAT HKO_LON HKO_CAT HKO_WIND HKO_PRES NEWDELHI_LAT NEWDELHI_LON NEWDELHI_GRADE NEWDELHI_WIND NEWDELHI_PRES NEWDELHI_CI NEWDELHI_DP NEWDELHI_POCI REUNION_LAT REUNION_LON REUNION_TYPE REUNION_WIND REUNION_PRES REUNION_TNUM REUNION_CI REUNION_RMW REUNION_R34_NE REUNION_R34_SE REUNION_R34_SW REUNION_R34_NW REUNION_R50_NE REUNION_R50_SE REUNION_R50_SW REUNION_R50_NW REUNION_R64_NE REUNION_R64_SE REUNION_R64_SW REUNION_R64_NW BOM_LAT BOM_LON BOM_TYPE BOM_WIND BOM_PRES BOM_TNUM BOM_CI BOM_RMW BOM_R34_NE BOM_R34_SE BOM_R34_SW BOM_R34_NW BOM_R50_NE BOM_R50_SE BOM_R50_SW BOM_R50_NW BOM_R64_NE BOM_R64_SE BOM_R64_SW BOM_R64_NW BOM_ROCI BOM_POCI BOM_EYE BOM_POS_METHOD BOM_PRES_METHOD NADI_LAT NADI_LON NADI_CAT NADI_WIND NADI_PRES WELLINGTON_LAT WELLINGTON_LON WELLINGTON_WIND WELLINGTON_PRES DS824_LAT DS824_LON DS824_STAGE DS824_WIND DS824_PRES TD9636_LAT TD9636_LON TD9636_STAGE TD9636_WIND TD9636_PRES TD9635_LAT TD9635_LON TD9635_WIND TD9635_PRES TD9635_ROCI NEUMANN_LAT NEUMANN_LON NEUMANN_CLASS NEUMANN_WIND NEUMANN_PRES MLC_LAT MLC_LON MLC_CLASS MLC_WIND MLC_PRES USA_GUST BOM_GUST BOM_GUST_PER REUNION_GUST REUNION_GUST_PER USA_SEAHGT USA_SEARAD_NE USA_SEARAD_SE USA_SEARAD_SW USA_SEARAD_NW STORM_SPEED STORM_DIR
1940232N15139 1940 49 WP MM NOT_NAMED 1940-08-18 21:00:00 NR 15.3000 139.000 main 1499 1488 __________O___ -1 15.3000 139.000 4 12 340
1940232N15139 1940 49 WP MM NOT_NAMED 1940-08-19 00:00:00 NR 15.8388 138.794 main 1490 1481 __________P___ -1 15.8388 138.794 4 12 339
1940232N15139 1940 49 WP MM NOT_NAMED 1940-08-19 03:00:00 NR 16.3920 138.560 main 1487 1471 __________P___ -1 16.3920 138.560 4 12 336
1940232N15139 1940 49 WP MM NOT_NAMED 1940-08-19 06:00:00 NR 16.9742 138.271 main 1478 1458 __________P___ -1 16.9742 138.271 4 14 332
1940232N15139 1940 49 WP MM NOT_NAMED 1940-08-19 09:00:00 NR 17.6000 137.900 main 1462 1447 __________O___ -1 17.6000 137.900 4 15 329
1940232N15139 1940 49 WP MM NOT_NAMED 1940-08-19 12:00:00 NR 18.2739 137.437 main 1447 1436 __________P___ -1 18.2739 137.437 4 16 327
1940232N15139 1940 49 WP MM NOT_NAMED 1940-08-19 15:00:00 NR 18.9611 136.954 main 1447 1404 __________P___ -1 18.9611 136.954 4 16 328
1940232N15139 1940 49 WP MM NOT_NAMED 1940-08-19 18:00:00 NR 19.6175 136.544 main 1399 1329 __________P___ -1 19.6175 136.544 4 14 334
1940232N15139 1940 49 WP MM NOT_NAMED 1940-08-19 21:00:00 NR 20.2000 136.300 main 1329 1293 __________O___ -1 20.2000 136.300 4 10 355
1940232N15139 1940 49 WP MM NOT_NAMED 1940-08-20 00:00:00 NR 20.6418 136.439 main 1293 1266 __________P___ -1 20.6418 136.439 4 9 27
1940232N15139 1940 49 WP MM NOT_NAMED 1940-08-20 03:00:00 NR 21.0100 136.737 main 1266 1251 __________P___ -1 21.0100 136.737 4 9 39
1940232N15139 1940 49 WP MM NOT_NAMED 1940-08-20 06:00:00 NR 21.3481 137.042 main 1251 1223 __________P___ -1 21.3481 137.042 4 8 32
1940232N15139 1940 49 WP MM NOT_NAMED 1940-08-20 09:00:00 NR 21.7000 137.200 main 1223 1164 __________O___ -1 21.7000 137.200 4 8 357
1940232N15139 1940 49 WP MM NOT_NAMED 1940-08-20 12:00:00 NR 22.1817 136.992 main 1164 1105 __________P___ -1 22.1817 136.992 4 11 331
1940232N15139 1940 49 WP MM NOT_NAMED 1940-08-20 15:00:00 NR 22.6759 136.619 main 1095 1036 __________P___ -1 22.6759 136.619 4 12 321
1940232N15139 1940 49 WP MM NOT_NAMED 1940-08-20 18:00:00 NR 23.1320 136.161 main 1036 971 __________P___ -1 23.1320 136.161 4 12 314
1940232N15139 1940 49 WP MM NOT_NAMED 1940-08-20 21:00:00 NR 23.5000 135.700 main 971 937 __________O___ -1 23.5000 135.700 4 9 310
1940232N15139 1940 49 WP MM NOT_NAMED 1940-08-21 00:00:00 NR 23.7174 135.395 main 937 913 __________P___ -1 23.7174 135.395 4 7 302
1940232N15139 1940 49 WP MM NOT_NAMED 1940-08-21 03:00:00 NR 23.8459 135.100 main 913 889 __________P___ -1 23.8459 135.100 4 6 290
1940232N15139 1940 49 WP MM NOT_NAMED 1940-08-21 06:00:00 NR 23.9266 134.780 main 889 862 __________P___ -1 23.9266 134.780 4 7 284
1940232N15139 1940 49 WP MM NOT_NAMED 1940-08-21 09:00:00 NR 24.0000 134.400 main 862 832 __________O___ -1 24.0000 134.400 4 8 284
1940232N15139 1940 49 WP MM NOT_NAMED 1940-08-21 12:00:00 NR 24.1339 133.899 main 832 793 __________P___ -1 24.1339 133.899 4 10 285
1940232N15139 1940 49 WP MM NOT_NAMED 1940-08-21 15:00:00 NR 24.2661 133.338 main 790 765 __________P___ -1 24.2661 133.338 4 11 284
1940232N15139 1940 49 WP MM NOT_NAMED 1940-08-21 18:00:00 NR 24.3901 132.758 main 765 740 __________P___ -1 24.3901 132.758 4 11 283
1940232N15139 1940 49 WP MM NOT_NAMED 1940-08-21 21:00:00 NR 24.5000 132.200 main 740 733 __________O___ -1 24.5000 132.200 4 9 280
1940232N15139 1940 49 WP MM NOT_NAMED 1940-08-22 00:00:00 NR 24.5517 131.732 main 721 717 __________P___ -1 24.5517 131.732 4 8 277
1940232N15139 1940 49 WP MM NOT_NAMED 1940-08-22 03:00:00 NR 24.5960 131.290 main 717 703 __________P___ -1 24.5960 131.290 4 8 278
1940232N15139 1940 49 WP MM NOT_NAMED 1940-08-22 06:00:00 NR 24.6673 130.853 main 703 692 __________P___ -1 24.6673 130.853 4 8 284
1940232N15139 1940 49 WP MM NOT_NAMED 1940-08-22 09:00:00 NR 24.8000 130.400 main 692 673 __________O___ -1 24.8000 130.400 4 10 293
1940232N15139 1940 49 WP MM NOT_NAMED 1940-08-22 12:00:00 NR 25.0607 129.834 main 664 640 __________P___ -1 25.0607 129.834 4 12 299
1940232N15139 1940 49 WP MM NOT_NAMED 1940-08-22 15:00:00 NR 25.3791 129.256 main 640 620 __________P___ -1 25.3791 129.256 4 12 303
1940232N15139 1940 49 WP MM NOT_NAMED 1940-08-22 18:00:00 NR 25.7077 128.724 main 623 601 __________P___ -1 25.7077 128.724 4 11 306
1940232N15139 1940 49 WP MM NOT_NAMED 1940-08-22 21:00:00 NR 26.0000 128.300 main 605 596 __________O___ -1 26.0000 128.300 4 8 306
1940232N15139 1940 49 WP MM NOT_NAMED 1940-08-23 00:00:00 NR 26.1595 128.034 main 596 591 __________P___ -1 26.1595 128.034 4 5 307
1940232N15139 1940 49 WP MM NOT_NAMED 1940-08-23 03:00:00 NR 26.2837 127.883 main 591 584 __________P___ -1 26.2837 127.883 4 3 323
1940232N15139 1940 49 WP MM NOT_NAMED 1940-08-23 06:00:00 NR 26.4161 127.816 main 584 563 __________P___ -1 26.4161 127.816 4 3 346
1940232N15139 1940 49 WP MM NOT_NAMED 1940-08-23 09:00:00 NR 26.6000 127.800 main 563 533 __________O___ -1 26.6000 127.800 4 5 354
1940232N15139 1940 49 WP MM NOT_NAMED 1940-08-23 12:00:00 NR 26.9046 127.762 main 533 503 __________P___ -1 26.9046 127.762 4 7 357
1940232N15139 1940 49 WP MM NOT_NAMED 1940-08-23 15:00:00 NR 27.2623 127.768 main 493 464 __________P___ -1 27.2623 127.768 4 7 4
1940232N15139 1940 49 WP MM NOT_NAMED 1940-08-23 18:00:00 NR 27.6390 127.815 main 464 420 __________P___ -1 27.6390 127.815 4 8 9
1940232N15139 1940 49 WP MM NOT_NAMED 1940-08-23 21:00:00 NR 28.0000 127.900 main 420 392 __________O___ -1 28.0000 127.900 4 7 9
1940232N15139 1940 49 WP MM NOT_NAMED 1940-08-24 00:00:00 NR 28.2956 127.942 main 392 359 __________P___ -1 28.2956 127.942 4 6 11
1940232N15139 1940 49 WP MM NOT_NAMED 1940-08-24 03:00:00 NR 28.5707 128.030 main 359 329 __________P___ -1 28.5707 128.030 4 6 23
1940232N15139 1940 49 WP MM NOT_NAMED 1940-08-24 06:00:00 NR 28.8356 128.202 main 329 285 __________P___ -1 28.8356 128.202 4 7 38
1940232N15139 1940 49 WP MM NOT_NAMED 1940-08-24 09:00:00 NR 29.1000 128.500 main 285 231 __________O___ -1 29.1000 128.500 4 9 51
1940232N15139 1940 49 WP MM NOT_NAMED 1940-08-24 12:00:00 NR 29.3931 128.993 main 231 176 __________P___ -1 29.3931 128.993 4 11 59
1940232N15139 1940 49 WP MM NOT_NAMED 1940-08-24 15:00:00 NR 29.6827 129.608 main 176 131 __________P___ -1 29.6827 129.608 4 12 63
1940232N15139 1940 49 WP MM NOT_NAMED 1940-08-24 18:00:00 NR 29.9557 130.268 main 117 89 __________P___ -1 29.9557 130.268 4 12 65
1940232N15139 1940 49 WP MM NOT_NAMED 1940-08-24 21:00:00 NR 30.2000 130.900 main 91 83 __________O___ -1 30.2000 130.900 4 10 67
1940232N15139 1940 49 WP MM NOT_NAMED 1940-08-25 00:00:00 NR 30.3561 131.341 main 88 88 __________P___ -1 30.3561 131.341 4 8 68
1940232N15139 1940 49 WP MM NOT_NAMED 1940-08-25 03:00:00 NR 30.4932 131.747 main 104 101 __________P___ -1 30.4932 131.747 4 8 67
1940232N15139 1940 49 WP MM NOT_NAMED 1940-08-25 06:00:00 NR 30.6588 132.179 main 109 109 __________P___ -1 30.6588 132.179 4 9 64
1940232N15139 1940 49 WP MM NOT_NAMED 1940-08-25 09:00:00 NR 30.9000 132.700 main 135 135 __________O___ -1 30.9000 132.700 4 12 59
1940232N15139 1940 49 WP MM NOT_NAMED 1940-08-25 12:00:00 NR 31.3018 133.427 main 160 149 __________P___ -1 31.3018 133.427 4 16 57
1940232N15139 1940 49 WP MM NOT_NAMED 1940-08-25 15:00:00 NR 31.7735 134.248 main 150 129 __________P___ -1 31.7735 134.248 4 17 56
1940232N15139 1940 49 WP MM NOT_NAMED 1940-08-25 18:00:00 NR 32.2580 135.096 main 130 78 __________P___ -1 32.2580 135.096 4 17 56
1940232N15139 1940 49 WP MM NOT_NAMED 1940-08-25 21:00:00 NR 32.7000 135.900 main 78 72 __________O___ -1 32.7000 135.900 4 14 62
1940232N15139 1940 49 WP MM NOT_NAMED 1940-08-26 00:00:00 NR 32.8956 136.526 main 85 85 __________P___ -1 32.8956 136.526 4 11 70
1940232N15139 1940 49 WP MM NOT_NAMED 1940-08-26 03:00:00 NR 33.0648 137.098 main 116 116 __________P___ -1 33.0648 137.098 4 11 66
1940232N15139 1940 49 WP MM NOT_NAMED 1940-08-26 06:00:00 NR 33.3268 137.670 main 133 89 __________P___ -1 33.3268 137.670 4 12 54
1940232N15139 1940 49 WP MM NOT_NAMED 1940-08-26 09:00:00 NR 33.8000 138.300 main 89 14 __________O___ -1 33.8000 138.300 4 18 42
1940232N15139 1940 49 WP MM NOT_NAMED 1940-08-26 12:00:00 NR 34.6585 139.128 main 9 0 __________P___ -1 34.6585 139.128 4 24 37
1940232N15139 1940 49 WP MM NOT_NAMED 1940-08-26 15:00:00 NR 35.7247 140.032 main 0 0 __________P___ -1 35.7247 140.032 4 27 34
1940232N15139 1940 49 WP MM NOT_NAMED 1940-08-26 18:00:00 NR 36.8779 140.948 main 8 0 __________P___ -1 36.8779 140.948 4 27 32
1940232N15139 1940 49 WP MM NOT_NAMED 1940-08-26 21:00:00 NR 38.0000 141.800 main 42 41 __________O___ -1 38.0000 141.800 4 22 32
1940232N15139 1940 49 WP MM NOT_NAMED 1940-08-27 00:00:00 NR 38.7288 142.416 main 61 56 __________P___ -1 38.7288 142.416 4 17 32
1940232N15139 1940 49 WP MM NOT_NAMED 1940-08-27 03:00:00 NR 39.4420 142.955 main 77 76 __________P___ -1 39.4420 142.955 4 18 28
1940232N15139 1940 49 WP MM NOT_NAMED 1940-08-27 06:00:00 NR 40.3093 143.514 main 138 99 __________P___ -1 40.3093 143.514 4 23 25
1940232N15139 1940 49 WP MM NOT_NAMED 1940-08-27 09:00:00 NR 41.5000 144.200 main 92 0 __________O___ -1 41.5000 144.200 4 34 23
1940232N15139 1940 49 WP MM NOT_NAMED 1940-08-27 12:00:00 NR 43.3948 145.277 main 0 0 __________P___ -1 43.3948 145.277 4 44 23
1940232N15139 1940 49 WP MM NOT_NAMED 1940-08-27 15:00:00 NR 45.5848 146.554 main 95 95 __________P___ -1 45.5848 146.554 4 48 23
1940232N15139 1940 49 WP MM NOT_NAMED 1940-08-27 18:00:00 NR 47.7807 147.916 main 252 252 __________P___ -1 47.7807 147.916 4 45 23
1940232N15139 1940 49 WP MM NOT_NAMED 1940-08-27 21:00:00 NR 49.7000 149.200 main 336 336 __________O___ -1 49.7000 149.200 4 37 24
1940232N15139 1940 49 WP MM NOT_NAMED 1940-08-28 00:00:00 NR 51.1413 150.239 main 361 348 __________P___ -1 51.1413 150.239 4 27 25
1940232N15139 1940 49 WP MM NOT_NAMED 1940-08-28 03:00:00 NR 52.1805 151.036 main 356 300 __________P___ -1 52.1805 151.036 4 20 26
1940232N15139 1940 49 WP MM NOT_NAMED 1940-08-28 06:00:00 NR 52.9557 151.661 main 291 245 __________P___ -1 52.9557 151.661 4 16 26
1940232N15139 1940 49 WP MM NOT_NAMED 1940-08-28 09:00:00 NR 53.6000 152.200 main 245 __________O___ -1 53.6000 152.200 4 14 26

デジタル台風データ・検索

IBTrACS Databaseについて

本データベースは、米国NOAAが公開する1842年以降の世界の熱帯低気圧のベストトラックデータアーカイブInternational Best Track Archive for Climate Stewardship (IBTrACS)を、ウェブで閲覧しやすい形式に変換したものです。

最終更新日:2021-11-26